Time;durP1;ratioP1;P1;durP2;ratioP2;P2;SDS_P1;SDS_P2;PMS_P1;PMS_P2;Temp;Humidity;BMP_temperature;BMP_pressure;BME280_temperature;BME280_humidity;BME280_pressure;Samples;Min_cycle;Max_cycle;Signal;HPM_P1;HPM_P2
2023/01/06 00:01:12;;;;;;;7.63;2.45;;;;;;;15.47;90.33;101703.78;6065386;23;20058;-83
2023/01/06 00:03:51;;;;;;;5.45;2.42;;;;;;;15.43;90.36;101692.47;6018573;23;20016;-83
2023/01/06 00:06:44;;;;;;;5.57;2.42;;;;;;;15.44;90.21;101677.81;6065495;23;20011;-83
2023/01/06 00:09:19;;;;;;;6.32;2.55;;;;;;;15.43;90.32;101681.22;6043016;23;20011;-82
2023/01/06 00:12:34;;;;;;;7.75;3.05;;;;;;;15.44;90.27;101688.19;6044992;23;20001;-83
2023/01/06 00:15:27;;;;;;;6.82;2.50;;;;;;;15.43;90.30;101689.88;6061225;23;20011;-83
2023/01/06 00:22:00;;;;;;;6.50;2.47;;;;;;;15.42;90.25;101693.34;6066436;23;20166;-83
2023/01/06 00:25:22;;;;;;;8.20;2.33;;;;;;;15.42;90.42;101688.16;6098005;23;20018;-84
2023/01/06 00:31:32;;;;;;;6.50;2.33;;;;;;;15.41;90.22;101690.72;6124110;23;20015;-84
2023/01/06 00:41:04;;;;;;;6.65;2.30;;;;;;;15.40;89.95;101692.44;6014061;23;20094;-83
2023/01/06 00:46:46;;;;;;;6.60;2.40;;;;;;;15.39;90.13;101679.44;6226623;22;20020;-84
2023/01/06 00:53:19;;;;;;;5.35;1.92;;;;;;;15.38;90.03;101669.94;6234181;23;20035;-83
2023/01/06 01:06:01;;;;;;;5.20;1.88;;;;;;;15.36;89.96;101667.31;6244127;23;20083;-82
2023/01/06 01:09:04;;;;;;;4.25;1.80;;;;;;;15.38;89.89;101673.41;6070228;23;19994;-83
2023/01/06 01:14:58;;;;;;;4.22;1.77;;;;;;;15.37;89.88;101670.78;6182611;23;20032;-83
2023/01/06 01:18:06;;;;;;;5.18;1.98;;;;;;;15.34;89.71;101662.97;6152085;23;20037;-82
2023/01/06 01:21:13;;;;;;;4.43;1.85;;;;;;;15.36;89.96;101656.06;6064443;23;19996;-83
2023/01/06 01:27:10;;;;;;;5.18;2.00;;;;;;;15.36;89.83;101643.97;6093936;23;20026;-83
2023/01/06 01:30:03;;;;;;;4.15;1.65;;;;;;;15.35;89.75;101650.03;5988986;24;20000;-82
2023/01/06 01:33:22;;;;;;;4.38;1.77;;;;;;;15.35;89.83;101641.34;6008245;23;20068;-83
2023/01/06 01:39:57;;;;;;;5.18;1.90;;;;;;;15.35;89.64;101626.69;5952615;24;20045;-83
2023/01/06 01:42:37;;;;;;;3.47;1.67;;;;;;;15.35;89.73;101636.16;5952683;24;20037;-83
2023/01/06 01:45:35;;;;;;;4.10;1.70;;;;;;;15.35;89.49;101633.56;5951254;24;20031;-83
2023/01/06 01:48:46;;;;;;;5.53;1.90;;;;;;;15.35;89.81;101626.69;5931069;24;20034;-83
2023/01/06 02:32:55;;;;;;;3.33;1.35;;;;;;;15.34;89.78;101585.16;6215184;23;20012;-84
2023/01/06 02:36:06;;;;;;;3.60;1.40;;;;;;;15.33;89.69;101575.63;6207258;23;20024;-84
2023/01/06 02:43:07;;;;;;;4.38;1.40;;;;;;;15.32;89.46;101550.56;6215014;23;20044;-84
2023/01/06 02:49:26;;;;;;;2.33;1.30;;;;;;;15.33;89.62;101545.41;6125435;23;20128;-83
2023/01/06 03:19:57;;;;;;;3.53;1.30;;;;;;;15.31;89.88;101507.31;6215735;22;20028;-79
2023/01/06 03:22:24;;;;;;;2.03;1.27;;;;;;;15.29;89.49;101491.75;6166213;23;20013;-79
2023/01/06 03:24:49;;;;;;;2.33;1.20;;;;;;;15.29;89.38;101470.16;6216647;23;20005;-79
2023/01/06 03:27:18;;;;;;;3.00;1.30;;;;;;;15.30;89.35;101457.19;6190474;23;20003;-79
2023/01/06 03:29:44;;;;;;;2.53;1.30;;;;;;;15.30;89.82;101458.91;6217146;23;20079;-79
2023/01/06 03:32:26;;;;;;;2.58;1.38;;;;;;;15.32;89.47;101471.03;6215572;23;20039;-79
2023/01/06 03:35:06;;;;;;;2.17;1.13;;;;;;;15.30;89.37;101470.16;6191295;23;20058;-79
2023/01/06 03:37:47;;;;;;;3.08;1.30;;;;;;;15.30;89.49;101466.69;6217045;23;20360;-79
2023/01/06 03:40:18;;;;;;;3.00;0.95;;;;;;;15.31;89.56;101463.22;6190618;23;20001;-79
2023/01/06 03:43:10;;;;;;;2.75;1.25;;;;;;;15.30;89.05;101467.56;6190499;23;20076;-79
2023/01/06 03:45:55;;;;;;;2.70;1.25;;;;;;;15.30;89.58;101457.19;6216880;23;20004;-79
2023/01/06 03:49:08;;;;;;;3.83;1.17;;;;;;;15.30;89.45;101457.19;6190425;23;20015;-79
2023/01/06 03:51:55;;;;;;;2.13;1.10;;;;;;;15.29;89.70;101447.69;6177326;23;20012;-79
2023/01/06 03:54:41;;;;;;;2.85;1.20;;;;;;;15.30;89.39;101445.94;6217174;23;20000;-79
2023/01/06 03:57:27;;;;;;;2.50;1.25;;;;;;;15.28;89.36;101448.53;6217110;23;20007;-79
2023/01/06 04:00:01;;;;;;;3.08;1.00;;;;;;;15.29;89.43;101454.59;6215573;23;20421;-79
2023/01/06 04:02:27;;;;;;;1.63;1.10;;;;;;;15.28;89.23;101451.13;6217116;23;20084;-79
2023/01/06 04:05:12;;;;;;;2.40;1.05;;;;;;;15.30;89.62;101445.94;6215241;23;20337;-79
2023/01/06 04:07:39;;;;;;;2.53;1.00;;;;;;;15.29;89.49;101432.13;6217107;23;20027;-79
2023/01/06 04:10:06;;;;;;;2.10;1.20;;;;;;;15.27;89.47;101426.06;6217168;23;20009;-79
2023/01/06 04:12:37;;;;;;;2.88;0.95;;;;;;;15.29;89.81;101432.13;6165824;23;20008;-79
2023/01/06 04:15:06;;;;;;;1.80;0.93;;;;;;;15.28;89.68;101421.72;6166745;23;20004;-79
2023/01/06 04:17:32;;;;;;;2.20;1.00;;;;;;;15.27;89.81;101404.44;6217084;23;20009;-79
2023/01/06 04:19:57;;;;;;;2.78;1.10;;;;;;;15.27;89.33;101407.03;6189630;23;20495;-79
2023/01/06 04:22:22;;;;;;;3.20;1.02;;;;;;;15.27;89.49;101414.81;6215199;23;20000;-79
2023/01/06 04:24:48;;;;;;;2.08;1.13;;;;;;;15.28;89.66;101411.34;6189794;23;20068;-79
2023/01/06 04:27:13;;;;;;;2.85;1.30;;;;;;;15.28;89.16;101398.38;6165560;23;20012;-79
2023/01/06 04:29:39;;;;;;;2.25;1.05;;;;;;;15.28;89.50;101395.78;6215254;23;20008;-79
2023/01/06 04:32:04;;;;;;;2.70;1.20;;;;;;;15.26;89.32;101387.13;6215202;23;20047;-79
2023/01/06 04:34:29;;;;;;;2.50;1.17;;;;;;;15.27;89.57;101391.47;6215098;23;20008;-79
2023/01/06 04:36:55;;;;;;;2.55;1.10;;;;;;;15.28;89.39;101393.19;6215481;23;20012;-79
2023/01/06 16:42:50;;;;;;;3.03;1.33;;;;;;;16.58;73.33;101679.88;6234467;23;20032;-83
2023/01/06 16:55:26;;;;;;;4.00;1.70;;;;;;;16.53;74.31;101673.78;6228925;22;20389;-87
2023/01/06 16:58:26;;;;;;;4.97;1.60;;;;;;;16.56;73.81;101678.13;6212521;23;20037;-86
2023/01/06 17:04:20;;;;;;;3.72;1.40;;;;;;;16.54;73.82;101678.09;6239546;23;20027;-86
2023/01/06 17:30:45;;;;;;;2.42;1.38;;;;;;;16.50;75.35;101646.88;6084449;23;20030;-83
2023/01/06 17:33:29;;;;;;;3.08;1.30;;;;;;;16.51;74.03;101662.50;6001457;24;20012;-83
2023/01/06 17:36:55;;;;;;;4.28;1.40;;;;;;;16.51;75.04;101656.44;6005746;24;20016;-85
2023/01/06 17:59:29;;;;;;;3.17;1.50;;;;;;;16.51;73.26;101654.72;6236257;23;20085;-80
2023/01/06 18:44:46;;;;;;;5.75;1.30;;;;;;;16.56;72.88;101631.34;6239783;23;20032;-83
2023/01/06 18:59:39;;;;;;;5.50;1.80;;;;;;;16.56;73.04;101624.41;6230175;22;20020;-86
2023/01/06 19:06:06;;;;;;;4.43;1.98;;;;;;;16.58;72.61;101642.63;6243546;23;20055;-84
2023/01/06 19:21:18;;;;;;;3.28;1.83;;;;;;;16.52;73.31;101614.84;6241479;23;20027;-87
2023/01/06 20:05:03;;;;;;;4.95;2.75;;;;;;;16.55;72.88;101590.63;6240387;23;20044;-84
2023/01/06 22:26:32;;;;;;;2.30;1.52;;;;;;;16.60;72.22;101537.84;6221688;22;20063;-91
2023/01/06 22:49:30;;;;;;;2.80;1.50;;;;;;;16.66;70.74;101537.00;6222838;22;20082;-84
2023/01/06 22:51:55;;;;;;;6.05;3.08;;;;;;;16.67;70.51;101538.75;6207424;23;20024;-83
2023/01/06 22:54:21;;;;;;;6.57;3.38;;;;;;;16.69;70.88;101537.03;6197052;23;20043;-75
2023/01/06 22:56:46;;;;;;;7.68;3.40;;;;;;;16.71;70.57;101532.69;6217071;23;20388;-76
2023/01/06 22:59:12;;;;;;;6.55;3.35;;;;;;;16.71;71.43;101532.69;6165750;23;20368;-77
2023/01/06 23:01:37;;;;;;;9.55;3.53;;;;;;;16.72;71.21;101529.22;6190905;23;20036;-78
2023/01/06 23:04:02;;;;;;;7.93;3.17;;;;;;;16.72;70.71;101530.97;6190472;23;20305;-76
2023/01/06 23:06:28;;;;;;;6.78;3.15;;;;;;;16.71;70.94;101518.84;6215507;23;20008;-75
2023/01/06 23:08:53;;;;;;;4.78;2.83;;;;;;;16.70;71.29;101530.97;6190335;23;20103;-75
2023/01/06 23:11:19;;;;;;;5.25;3.20;;;;;;;16.70;70.93;101520.59;6189936;23;20020;-77
2023/01/06 23:13:46;;;;;;;5.55;3.15;;;;;;;16.69;71.59;101531.81;6215292;23;20095;-76
2023/01/06 23:16:17;;;;;;;4.90;2.80;;;;;;;16.69;71.35;101520.56;6216942;23;20005;-76
2023/01/06 23:18:45;;;;;;;6.38;3.25;;;;;;;16.67;71.98;101533.53;6190207;23;20005;-76
2023/01/06 23:21:14;;;;;;;7.22;3.08;;;;;;;16.67;71.07;101525.75;6216629;23;20000;-75
2023/01/06 23:23:41;;;;;;;7.65;3.00;;;;;;;16.67;71.71;101529.22;6190265;23;20011;-76
2023/01/06 23:26:12;;;;;;;6.70;2.72;;;;;;;16.66;71.47;101518.81;6216684;23;20008;-76
2023/01/06 23:28:38;;;;;;;4.93;2.42;;;;;;;16.66;71.73;101519.69;6216950;23;20004;-77
2023/01/06 23:31:12;;;;;;;6.80;3.25;;;;;;;16.66;71.18;101513.63;6189893;23;20321;-76
2023/01/06 23:33:40;;;;;;;5.93;2.88;;;;;;;16.66;71.34;101511.03;6216735;23;20004;-76
2023/01/06 23:36:07;;;;;;;9.43;3.30;;;;;;;16.65;71.29;101510.13;6215063;23;20426;-76
2023/01/06 23:38:33;;;;;;;4.93;2.88;;;;;;;16.65;71.05;101511.88;6216620;23;20000;-76
2023/01/06 23:41:10;;;;;;;5.55;2.85;;;;;;;16.64;71.15;101513.59;6215060;23;20058;-76
2023/01/06 23:43:37;;;;;;;7.53;2.83;;;;;;;16.64;71.11;101505.81;6216615;23;20022;-75
2023/01/06 23:46:06;;;;;;;6.82;2.90;;;;;;;16.63;71.19;101501.47;6216512;23;20005;-75
2023/01/06 23:48:32;;;;;;;4.72;2.83;;;;;;;16.64;70.73;101503.22;6189973;23;20004;-76
2023/01/06 23:50:59;;;;;;;6.47;3.00;;;;;;;16.63;71.02;101501.47;6188990;23;20102;-76
2023/01/06 23:53:25;;;;;;;5.13;2.63;;;;;;;16.64;70.76;101497.16;6216557;23;20068;-76
2023/01/06 23:56:04;;;;;;;5.50;2.47;;;;;;;16.63;71.01;101485.88;6215056;23;20010;-76
2023/01/06 23:58:32;;;;;;;4.85;2.60;;;;;;;16.63;71.05;101487.59;6214978;23;20008;-75
